createdAt,value
2022-08-26T00:00:24.090Z,100791.59
2022-08-26T00:02:28.718Z,100809.81
2022-08-26T00:04:32.540Z,100799.31
2022-08-26T00:06:36.119Z,100804.78
2022-08-26T00:08:40.197Z,100791.19
2022-08-26T00:10:45.098Z,100763.91
2022-08-26T00:12:48.547Z,100809.25
2022-08-26T00:14:53.363Z,100811.72
2022-08-26T00:16:57.045Z,100813.31
2022-08-26T00:19:01.158Z,100815.06
2022-08-26T00:21:06.167Z,100815.09
2022-08-26T00:23:10.211Z,100821.72
2022-08-26T00:25:13.955Z,100827.00
2022-08-26T00:27:20.266Z,100836.13
2022-08-26T00:29:24.237Z,100828.72
2022-08-26T00:31:31.151Z,100822.50
2022-08-26T00:33:34.848Z,100837.63
2022-08-26T00:35:38.282Z,100833.75
2022-08-26T00:37:48.809Z,100835.66
2022-08-26T00:39:52.837Z,100845.72
2022-08-26T00:41:56.467Z,100831.72
2022-08-26T00:44:00.095Z,100834.44
2022-08-26T00:46:09.389Z,100834.81
2022-08-26T00:48:17.120Z,100840.16
2022-08-26T00:50:25.397Z,100840.75
2022-08-26T00:52:30.511Z,100840.81
2022-08-26T00:54:40.419Z,100842.69
2022-08-26T00:56:52.882Z,100843.09
2022-08-26T00:58:59.986Z,100853.88
2022-08-26T01:01:03.590Z,100851.91
2022-08-26T01:03:12.632Z,100857.41
2022-08-26T01:05:19.528Z,100857.25
2022-08-26T01:07:23.383Z,100857.59
2022-08-26T01:09:27.228Z,100857.78
2022-08-26T01:11:31.785Z,100851.19
2022-08-26T01:13:38.024Z,100843.19
2022-08-26T01:15:45.571Z,100854.38
2022-08-26T01:17:49.794Z,100852.25
2022-08-26T01:19:59.619Z,100851.53
2022-08-26T01:22:11.225Z,100838.19
2022-08-26T01:24:17.908Z,100858.31
2022-08-26T01:26:25.946Z,100854.47
2022-08-26T01:28:34.268Z,100858.16
2022-08-26T01:30:42.147Z,100862.50
2022-08-26T01:32:47.132Z,100846.38
2022-08-26T01:34:50.611Z,100864.63
2022-08-26T01:37:02.537Z,100864.81
2022-08-26T01:39:08.390Z,100868.66
2022-08-26T01:41:19.606Z,100867.59
2022-08-26T01:43:26.141Z,100872.91
2022-08-26T01:45:34.177Z,100866.16
2022-08-26T01:47:39.678Z,100875.06
2022-08-26T01:49:47.458Z,100875.53
2022-08-26T01:51:57.605Z,100866.84
2022-08-26T01:54:01.909Z,100881.22
2022-08-26T01:56:07.356Z,100884.66
2022-08-26T01:58:17.590Z,100874.22
2022-08-26T02:00:24.577Z,100884.53
2022-08-26T02:02:28.744Z,100886.25
2022-08-26T02:04:38.693Z,100888.84
2022-08-26T02:06:43.406Z,100888.94
2022-08-26T02:08:50.251Z,100899.25
2022-08-26T02:10:55.211Z,100888.81
2022-08-26T02:12:58.969Z,100884.22
2022-08-26T02:15:07.696Z,100905.72
2022-08-26T02:17:15.935Z,100905.66
2022-08-26T02:19:23.737Z,100909.94
2022-08-26T02:21:27.426Z,100903.72
2022-08-26T02:23:30.975Z,100910.91
2022-08-26T02:25:41.665Z,100916.22
2022-08-26T02:27:47.477Z,100908.94
2022-08-26T02:29:56.481Z,100906.28
2022-08-26T02:32:01.352Z,100915.31
2022-08-26T02:34:12.504Z,100916.31
2022-08-26T02:36:21.054Z,100913.72
2022-08-26T02:38:24.520Z,100907.56
2022-08-26T02:40:30.654Z,100910.53
2022-08-26T02:42:34.743Z,100908.84
2022-08-26T02:44:39.006Z,100912.22
2022-08-26T02:46:46.863Z,100910.69
2022-08-26T02:48:52.411Z,100902.03
2022-08-26T02:50:55.818Z,100908.97
2022-08-26T02:52:59.336Z,100918.66
2022-08-26T02:55:02.760Z,100912.31
2022-08-26T02:57:06.392Z,100898.91
2022-08-26T02:59:12.568Z,100916.66
2022-08-26T03:01:24.046Z,100917.53
2022-08-26T03:03:28.312Z,100902.81
2022-08-26T03:05:33.473Z,100915.13
2022-08-26T03:07:37.524Z,100911.56
2022-08-26T03:09:41.023Z,100911.56
2022-08-26T03:11:44.458Z,100914.31
2022-08-26T03:13:48.103Z,100913.69
2022-08-26T03:15:51.583Z,100911.84
2022-08-26T03:17:56.559Z,100913.78
2022-08-26T03:20:00.711Z,100913.84
2022-08-26T03:22:07.160Z,100908.59
2022-08-26T03:24:12.545Z,100906.91
2022-08-26T03:26:17.725Z,100904.28
2022-08-26T03:28:21.412Z,100910.47
2022-08-26T03:30:45.339Z,100908.81
2022-08-26T03:32:49.380Z,100912.13
2022-08-26T03:34:53.964Z,100914.72
2022-08-26T03:36:57.396Z,100913.75
2022-08-26T03:39:02.140Z,100913.84
2022-08-26T03:41:05.967Z,100907.97
2022-08-26T03:43:11.747Z,100912.75
2022-08-26T03:45:17.307Z,100903.31
2022-08-26T03:47:21.906Z,100909.72
2022-08-26T03:49:25.425Z,100904.34
2022-08-26T03:51:32.978Z,100895.41
2022-08-26T03:53:37.979Z,100902.56
2022-08-26T03:55:43.424Z,100906.06
2022-08-26T03:57:47.409Z,100913.22
2022-08-26T03:59:51.377Z,100914.97
2022-08-26T04:01:55.456Z,100917.53
2022-08-26T04:04:00.163Z,100911.28
2022-08-26T04:06:04.077Z,100914.94
2022-08-26T04:08:08.052Z,100921.00
2022-08-26T04:10:12.567Z,100913.78
2022-08-26T04:12:17.796Z,100918.22
2022-08-26T04:14:23.863Z,100913.00
2022-08-26T04:16:31.581Z,100895.47
2022-08-26T04:18:37.964Z,100916.50
2022-08-26T04:20:50.639Z,100920.03
2022-08-26T04:22:54.334Z,100916.63
2022-08-26T04:24:57.943Z,100914.00
2022-08-26T04:27:03.379Z,100921.16
2022-08-26T04:29:11.220Z,100922.06
2022-08-26T04:31:16.402Z,100926.38
2022-08-26T04:33:32.231Z,100927.06
2022-08-26T04:35:37.118Z,100929.69
2022-08-26T04:37:43.006Z,100927.31
2022-08-26T04:39:46.611Z,100923.53
2022-08-26T04:41:50.820Z,100931.53
2022-08-26T04:43:54.679Z,100924.66
2022-08-26T04:46:02.217Z,100933.59
2022-08-26T04:48:05.962Z,100932.72
2022-08-26T04:50:15.260Z,100935.38
2022-08-26T04:52:21.477Z,100939.75
2022-08-26T04:54:26.334Z,100942.56
2022-08-26T04:56:33.958Z,100938.19
2022-08-26T04:58:37.435Z,100937.25
2022-08-26T05:00:40.956Z,100944.41
2022-08-26T05:02:46.049Z,100937.34
2022-08-26T05:04:49.674Z,100940.69
2022-08-26T05:07:02.469Z,100938.81
2022-08-26T05:09:06.589Z,100938.72
2022-08-26T05:11:10.650Z,100944.88
2022-08-26T05:13:15.667Z,100943.28
2022-08-26T05:15:19.488Z,100944.88
2022-08-26T05:17:23.477Z,100909.59
2022-08-26T05:19:28.516Z,100937.72
2022-08-26T05:21:31.959Z,100938.66
2022-08-26T05:23:36.938Z,100929.97
2022-08-26T05:25:41.911Z,100942.34
2022-08-26T05:27:45.598Z,100945.94
2022-08-26T05:29:54.550Z,100950.44
2022-08-26T05:31:58.346Z,100942.44
2022-08-26T05:34:05.920Z,100941.47
2022-08-26T05:36:15.135Z,100943.09
2022-08-26T05:38:20.395Z,100941.31
2022-08-26T05:40:23.868Z,100943.16
2022-08-26T05:42:29.530Z,100947.66
2022-08-26T05:44:35.900Z,100945.06
2022-08-26T05:46:56.528Z,100944.19
2022-08-26T05:49:00.170Z,100955.53
2022-08-26T05:51:05.539Z,100948.47
2022-08-26T05:53:11.924Z,100952.84
2022-08-26T05:55:16.680Z,100950.16
2022-08-26T05:57:23.149Z,100950.00
2022-08-26T05:59:27.008Z,100961.41
2022-08-26T06:01:30.829Z,100955.56
2022-08-26T06:03:40.829Z,100955.75
2022-08-26T06:05:44.342Z,100955.69
2022-08-26T06:08:05.720Z,100966.28
2022-08-26T06:10:31.682Z,100964.38
2022-08-26T06:12:36.204Z,100967.00
2022-08-26T06:14:39.600Z,100966.88
2022-08-26T06:16:45.085Z,100969.53
2022-08-26T06:18:48.884Z,100959.84
2022-08-26T06:20:57.999Z,100965.16
2022-08-26T06:23:19.083Z,100970.41
2022-08-26T06:25:39.195Z,100970.41
2022-08-26T06:27:42.682Z,100971.97
2022-08-26T06:29:47.105Z,100972.84
2022-08-26T06:31:50.644Z,100968.38
2022-08-26T06:33:55.794Z,100969.16
2022-08-26T06:36:01.111Z,100982.72
2022-08-26T06:38:04.763Z,100972.19
2022-08-26T06:40:09.768Z,100969.47
2022-08-26T06:42:16.325Z,100967.03
2022-08-26T06:44:20.945Z,100963.56
2022-08-26T06:46:24.750Z,100972.25
2022-08-26T06:48:29.762Z,100971.22
2022-08-26T06:50:33.324Z,100979.84
2022-08-26T06:52:36.819Z,100977.13
2022-08-26T06:54:43.111Z,100983.31
2022-08-26T06:56:47.998Z,100980.81
2022-08-26T06:58:53.664Z,100977.19
2022-08-26T07:01:03.089Z,100977.31
2022-08-26T07:03:13.360Z,100986.25
2022-08-26T07:05:16.899Z,100982.56
2022-08-26T07:07:21.645Z,100978.09
2022-08-26T07:09:28.064Z,100970.09
2022-08-26T07:11:32.381Z,100987.75
2022-08-26T07:13:37.653Z,100991.25
2022-08-26T07:15:43.500Z,100984.22
2022-08-26T07:17:47.821Z,100991.28
2022-08-26T07:19:51.641Z,100990.28
2022-08-26T07:21:56.236Z,100983.25
2022-08-26T07:24:01.326Z,100991.09
2022-08-26T07:26:06.425Z,100986.94
2022-08-26T07:28:10.249Z,100994.06
2022-08-26T07:30:15.146Z,100996.63
2022-08-26T07:32:21.005Z,100996.03
2022-08-26T07:34:27.429Z,100999.56
2022-08-26T07:36:31.360Z,100994.34
2022-08-26T07:38:36.243Z,101010.78
2022-08-26T07:40:40.700Z,101008.97
2022-08-26T07:42:44.460Z,101008.97
2022-08-26T07:44:48.208Z,101015.28
2022-08-26T07:46:53.118Z,101007.31
2022-08-26T07:48:59.389Z,101007.28
2022-08-26T07:51:02.946Z,101017.16
2022-08-26T07:53:06.482Z,101015.53
2022-08-26T07:55:14.401Z,101012.88
2022-08-26T07:57:19.153Z,101015.41
2022-08-26T07:59:23.325Z,101017.22
2022-08-26T08:01:28.996Z,101013.63
2022-08-26T08:03:34.793Z,101011.91
2022-08-26T08:05:41.114Z,101020.97
2022-08-26T08:07:45.629Z,101018.19
2022-08-26T08:09:51.271Z,101019.03
2022-08-26T08:11:54.789Z,101019.06
2022-08-26T08:14:00.745Z,101022.84
2022-08-26T08:16:04.997Z,101022.81
2022-08-26T08:18:15.788Z,101019.97
2022-08-26T08:20:20.562Z,101006.88
2022-08-26T08:22:25.485Z,101019.94
2022-08-26T08:24:30.799Z,101016.34
2022-08-26T08:26:35.191Z,101024.41
2022-08-26T08:28:39.711Z,101032.66
2022-08-26T08:30:45.161Z,101031.00
2022-08-26T08:32:49.277Z,101022.84
2022-08-26T08:34:52.915Z,101040.53
2022-08-26T08:36:57.597Z,101032.66
2022-08-26T08:39:02.354Z,101006.13
2022-08-26T08:41:05.794Z,101031.44
2022-08-26T08:43:13.531Z,101041.31
2022-08-26T08:45:23.061Z,101036.06
2022-08-26T08:47:32.154Z,101031.50
2022-08-26T08:49:35.993Z,101034.44
2022-08-26T08:51:48.040Z,101032.53
2022-08-26T08:53:55.717Z,101029.19
2022-08-26T08:56:08.821Z,101032.47
2022-08-26T08:58:19.135Z,101033.13
2022-08-26T09:00:30.349Z,101041.81
2022-08-26T09:02:41.680Z,101036.53
2022-08-26T09:04:57.508Z,101035.84
2022-08-26T09:07:04.182Z,101035.94
2022-08-26T09:09:15.248Z,101038.81
2022-08-26T09:11:21.387Z,101045.88
2022-08-26T09:13:27.555Z,101050.16
2022-08-26T09:15:40.485Z,101047.56
2022-08-26T09:17:53.362Z,101047.53
2022-08-26T09:20:08.416Z,101046.75
2022-08-26T09:22:30.161Z,101047.50
2022-08-26T09:24:41.849Z,101048.47
2022-08-26T09:26:53.048Z,101047.44
2022-08-26T09:28:58.473Z,101047.50
2022-08-26T09:31:13.016Z,101049.28
2022-08-26T09:33:19.969Z,101052.00
2022-08-26T09:35:26.743Z,100994.66
2022-08-26T09:37:40.494Z,101050.00
2022-08-26T09:39:44.526Z,101046.34
2022-08-26T09:42:04.868Z,101044.53
2022-08-26T09:44:17.659Z,101045.56
2022-08-26T09:46:28.920Z,101046.25
2022-08-26T09:48:36.259Z,101046.81
2022-08-26T09:50:53.106Z,101051.00
2022-08-26T09:53:16.931Z,101050.88
2022-08-26T09:55:24.216Z,101049.03
2022-08-26T09:57:31.280Z,101050.81
2022-08-26T09:59:34.736Z,101056.06
2022-08-26T10:01:41.854Z,101048.00
2022-08-26T10:03:47.086Z,101044.19
2022-08-26T10:05:59.358Z,101040.78
2022-08-26T10:08:18.420Z,101054.59
2022-08-26T10:10:26.174Z,101042.31
2022-08-26T10:12:35.797Z,101045.16
2022-08-26T10:17:06.846Z,101029.72
2022-08-26T10:19:16.584Z,101044.78
2022-08-26T10:21:26.661Z,101038.66
2022-08-26T10:23:34.626Z,101044.69
2022-08-26T10:25:44.145Z,101040.72
2022-08-26T10:27:55.673Z,101041.69
2022-08-26T10:30:06.550Z,101039.09
2022-08-26T10:32:15.270Z,101038.97
2022-08-26T10:34:21.148Z,101041.81
2022-08-26T10:37:05.156Z,101037.00
2022-08-26T10:39:15.557Z,101044.72
2022-08-26T10:41:24.210Z,101041.09
2022-08-26T10:43:31.758Z,101029.56
2022-08-26T10:45:43.610Z,101035.53
2022-08-26T10:47:53.013Z,100988.19
2022-08-26T10:50:02.938Z,101036.41
2022-08-26T10:52:16.499Z,101027.31
2022-08-26T10:54:29.904Z,101029.78
2022-08-26T10:56:44.801Z,101036.63
2022-08-26T10:59:01.185Z,101029.34
2022-08-26T11:01:29.059Z,101034.28
2022-08-26T11:03:42.584Z,101025.19
2022-08-26T11:05:46.110Z,101024.84
2022-08-26T11:07:52.739Z,101029.28
2022-08-26T11:09:59.559Z,101036.53
2022-08-26T11:12:06.843Z,101026.94
2022-08-26T11:14:42.078Z,101030.69
2022-08-26T11:17:01.243Z,101027.56
2022-08-26T11:19:06.505Z,101022.75
2022-08-26T11:21:46.066Z,101017.31
2022-08-26T11:23:52.897Z,101014.06
2022-08-26T11:26:35.377Z,101020.13
2022-08-26T11:28:44.610Z,101020.38
2022-08-26T11:30:57.523Z,101024.19
2022-08-26T11:33:02.024Z,101016.91
2022-08-26T11:35:08.711Z,101021.19
2022-08-26T11:37:18.007Z,101015.91
2022-08-26T11:39:25.845Z,101016.31
2022-08-26T11:41:31.363Z,101018.13
2022-08-26T11:43:35.069Z,101020.00
2022-08-26T11:45:41.556Z,101020.25
2022-08-26T11:47:49.359Z,101021.22
2022-08-26T11:50:07.985Z,101011.44
2022-08-26T11:52:14.731Z,101018.41
2022-08-26T11:54:30.472Z,101011.09
2022-08-26T11:56:42.707Z,101006.47
2022-08-26T11:58:47.886Z,101010.16
2022-08-26T12:00:53.914Z,101004.81
2022-08-26T12:03:02.706Z,101010.44
2022-08-26T12:05:09.012Z,101010.81
2022-08-26T12:07:12.856Z,101010.81
2022-08-26T12:09:23.677Z,101015.00
2022-08-26T12:11:31.033Z,100980.84
2022-08-26T12:13:38.980Z,100993.44
2022-08-26T12:15:42.733Z,101000.31
2022-08-26T12:17:51.710Z,101018.19
2022-08-26T12:19:58.385Z,101008.59
2022-08-26T12:22:05.933Z,100999.06
2022-08-26T12:24:09.879Z,101019.59
2022-08-26T12:26:21.849Z,101009.88
2022-08-26T12:28:25.579Z,100989.69
2022-08-26T12:30:29.025Z,101012.47
2022-08-26T12:32:35.341Z,101014.25
2022-08-26T12:34:39.807Z,101010.84
2022-08-26T12:36:48.142Z,100995.84
2022-08-26T12:38:53.706Z,101019.78
2022-08-26T12:41:00.003Z,101008.94
2022-08-26T12:43:05.434Z,100999.03
2022-08-26T12:45:09.670Z,101011.25
2022-08-26T12:47:23.400Z,101024.50
2022-08-26T12:49:47.896Z,101013.59
2022-08-26T12:51:52.747Z,101011.69
2022-08-26T12:53:56.564Z,101007.66
2022-08-26T12:56:03.483Z,101012.06
2022-08-26T12:58:21.739Z,101009.22
2022-08-26T13:00:36.406Z,101008.81
2022-08-26T13:02:40.272Z,101007.03
2022-08-26T13:04:46.135Z,101006.06
2022-08-26T13:06:49.589Z,101006.31
2022-08-26T13:08:55.929Z,100992.66
2022-08-26T13:11:05.347Z,101008.34
2022-08-26T13:13:08.845Z,100995.00
2022-08-26T13:15:13.248Z,100993.16
2022-08-26T13:17:16.967Z,100997.19
2022-08-26T13:19:23.479Z,100988.81
2022-08-26T13:21:28.951Z,101001.44
2022-08-26T13:23:38.393Z,100995.41
2022-08-26T13:25:45.456Z,100996.31
2022-08-26T13:27:48.960Z,100994.03
2022-08-26T13:29:52.779Z,100989.09
2022-08-26T13:31:56.514Z,100990.34
2022-08-26T13:34:01.691Z,100978.72
2022-08-26T13:36:05.940Z,100977.75
2022-08-26T13:38:14.777Z,100960.03
2022-08-26T13:40:36.922Z,100991.22
2022-08-26T13:42:50.014Z,100996.81
2022-08-26T13:44:57.851Z,100988.81
2022-08-26T13:47:03.770Z,100993.66
2022-08-26T13:49:07.805Z,100985.78
2022-08-26T13:51:11.959Z,100987.56
2022-08-26T13:53:16.282Z,100971.59
2022-08-26T13:55:19.938Z,101003.97
2022-08-26T13:57:24.767Z,100988.81
2022-08-26T13:59:29.649Z,100989.06
2022-08-26T14:01:34.234Z,100992.44
2022-08-26T14:03:37.968Z,100975.75
2022-08-26T14:05:41.855Z,100985.88
2022-08-26T14:07:45.529Z,100983.34
2022-08-26T14:09:49.048Z,100990.06
2022-08-26T14:11:54.342Z,100993.78
2022-08-26T14:13:58.651Z,100998.22
2022-08-26T14:16:05.781Z,100998.06
2022-08-26T14:18:13.212Z,100998.75
2022-08-26T14:20:24.696Z,100987.16
2022-08-26T14:22:29.061Z,100987.19
2022-08-26T14:24:32.510Z,100993.69
2022-08-26T14:26:39.097Z,100982.38
2022-08-26T14:28:42.810Z,100977.47
2022-08-26T14:30:52.032Z,100984.97
2022-08-26T14:32:59.452Z,100983.88
2022-08-26T14:35:03.398Z,100984.66
2022-08-26T14:37:07.683Z,100977.72
2022-08-26T14:39:14.638Z,100985.72
2022-08-26T14:41:19.618Z,100978.66
2022-08-26T14:43:23.033Z,100990.50
2022-08-26T14:45:31.709Z,100986.13
2022-08-26T14:47:35.395Z,100978.34
2022-08-26T14:49:40.201Z,100977.53
2022-08-26T14:51:43.610Z,100984.56
2022-08-26T14:54:04.631Z,100986.19
2022-08-26T14:56:08.043Z,100982.53
2022-08-26T14:58:11.619Z,100978.91
2022-08-26T15:00:15.824Z,100978.81
2022-08-26T15:02:33.501Z,100991.59
2022-08-26T15:04:37.922Z,100992.72
2022-08-26T15:06:42.857Z,100970.47
2022-08-26T15:08:46.365Z,100971.94
2022-08-26T15:10:50.739Z,100964.19
2022-08-26T15:12:54.160Z,100971.63
2022-08-26T15:14:57.599Z,100972.72
2022-08-26T15:17:01.539Z,100972.69
2022-08-26T15:19:05.924Z,100963.41
2022-08-26T15:21:09.367Z,100967.47
2022-08-26T15:23:14.725Z,100972.44
2022-08-26T15:25:18.156Z,100964.56
2022-08-26T15:27:21.596Z,100972.75
2022-08-26T15:29:25.075Z,100963.19
2022-08-26T15:31:31.923Z,100965.06
2022-08-26T15:33:36.159Z,100947.56
2022-08-26T15:35:40.266Z,100968.72
2022-08-26T15:37:46.358Z,100956.13
2022-08-26T15:39:52.024Z,100957.84
2022-08-26T15:41:56.136Z,100968.75
2022-08-26T15:44:02.207Z,100973.44
2022-08-26T15:46:11.837Z,100962.06
2022-08-26T15:48:16.273Z,100967.47
2022-08-26T15:50:20.036Z,100962.41
2022-08-26T15:52:23.525Z,100959.00
2022-08-26T15:54:26.953Z,100903.81
2022-08-26T15:56:34.307Z,100942.31
2022-08-26T15:58:38.120Z,100947.56
2022-08-26T16:00:42.268Z,100957.19
2022-08-26T16:02:45.836Z,100956.44
2022-08-26T16:04:49.328Z,100958.22
2022-08-26T16:06:53.593Z,100960.06
2022-08-26T16:08:58.257Z,100950.38
2022-08-26T16:11:04.505Z,100953.78
2022-08-26T16:13:11.652Z,100951.84
2022-08-26T16:15:18.053Z,100911.44
2022-08-26T16:17:21.811Z,100954.28
2022-08-26T16:19:25.395Z,100945.44
2022-08-26T16:21:29.353Z,100950.97
2022-08-26T16:23:32.949Z,100948.28
2022-08-26T16:25:36.625Z,100947.50
2022-08-26T16:27:40.085Z,100951.91
2022-08-26T16:29:44.860Z,100956.53
2022-08-26T16:31:51.915Z,100961.97
2022-08-26T16:33:55.270Z,100955.78
2022-08-26T16:35:59.049Z,100962.00
2022-08-26T16:38:02.903Z,100963.97
2022-08-26T16:40:08.617Z,100967.59
2022-08-26T16:42:12.050Z,100960.75
2022-08-26T16:44:15.499Z,100973.88
2022-08-26T16:46:22.167Z,100980.03
2022-08-26T16:48:26.341Z,100986.94
2022-08-26T16:50:30.107Z,100993.03
2022-08-26T16:52:34.084Z,100994.09
2022-08-26T16:54:37.689Z,100999.63
2022-08-26T16:56:41.107Z,100996.19
2022-08-26T16:58:44.912Z,101002.56
2022-08-26T17:00:48.549Z,100999.13
2022-08-26T17:02:53.553Z,100990.38
2022-08-26T17:04:56.942Z,101000.19
2022-08-26T17:07:01.072Z,100997.63
2022-08-26T17:09:04.831Z,101004.00
2022-08-26T17:11:09.459Z,100990.00
2022-08-26T17:13:12.932Z,100996.81
2022-08-26T17:15:27.840Z,100973.97
2022-08-26T17:17:31.317Z,100998.63
2022-08-26T17:19:41.035Z,101002.38
2022-08-26T17:21:50.454Z,101005.19
2022-08-26T17:23:54.066Z,101002.56
2022-08-26T17:25:57.509Z,100999.91
2022-08-26T17:28:01.123Z,101009.78
2022-08-26T17:30:06.172Z,101007.19
2022-08-26T17:32:09.621Z,101014.25
2022-08-26T17:34:12.981Z,101009.75
2022-08-26T17:36:18.454Z,101010.56
2022-08-26T17:38:22.507Z,101000.88
2022-08-26T17:40:29.153Z,101013.28
2022-08-26T17:42:32.594Z,101006.25
2022-08-26T17:44:36.146Z,101013.47
2022-08-26T17:46:39.574Z,101014.41
2022-08-26T17:48:43.765Z,101017.94
2022-08-26T17:50:49.703Z,101011.69
2022-08-26T17:52:54.478Z,101022.34
2022-08-26T17:54:58.974Z,101017.97
2022-08-26T17:57:02.448Z,101014.53
2022-08-26T17:59:05.873Z,101006.72
2022-08-26T18:01:11.450Z,100991.81
2022-08-26T18:03:15.039Z,101012.00
2022-08-26T18:05:18.438Z,101025.28
2022-08-26T18:07:21.880Z,101013.75
2022-08-26T18:09:26.655Z,101019.06
2022-08-26T18:11:31.225Z,101020.84
2022-08-26T18:13:34.675Z,101011.28
2022-08-26T18:15:40.161Z,101025.28
2022-08-26T18:17:44.229Z,101026.13
2022-08-26T18:19:47.701Z,101019.06
2022-08-26T18:21:51.505Z,101023.50
2022-08-26T18:23:55.985Z,101029.72
2022-08-26T18:26:00.747Z,101031.50
2022-08-26T18:28:04.715Z,101027.13
2022-08-26T18:30:16.464Z,101029.00
2022-08-26T18:32:20.274Z,101021.19
2022-08-26T18:34:23.935Z,101034.38
2022-08-26T18:36:37.922Z,101037.09
2022-08-26T18:38:41.333Z,101016.94
2022-08-26T18:40:46.687Z,101034.50
2022-08-26T18:42:53.983Z,101022.16
2022-08-26T18:44:57.766Z,101031.84
2022-08-26T18:47:01.230Z,101031.91
2022-08-26T18:49:05.277Z,101030.13
2022-08-26T18:51:12.507Z,101027.50
2022-08-26T18:53:17.544Z,101032.84
2022-08-26T18:55:21.345Z,101036.38
2022-08-26T18:57:24.981Z,101047.06
2022-08-26T18:59:30.641Z,101034.78
2022-08-26T19:01:35.951Z,101033.84
2022-08-26T19:03:39.509Z,101039.97
2022-08-26T19:05:43.060Z,101047.09
2022-08-26T19:07:48.009Z,101047.09
2022-08-26T19:09:53.871Z,101041.81
2022-08-26T19:11:57.739Z,101040.09
2022-08-26T19:14:02.340Z,101040.94
2022-08-26T19:16:07.282Z,101040.97
2022-08-26T19:18:12.313Z,101039.38
2022-08-26T19:20:15.854Z,101049.81
2022-08-26T19:22:19.831Z,101044.53
2022-08-26T19:24:28.292Z,101049.84
2022-08-26T19:26:32.769Z,101051.63
2022-08-26T19:28:37.166Z,101046.28
2022-08-26T19:30:41.600Z,101044.47
2022-08-26T19:32:46.745Z,101048.91
2022-08-26T19:34:50.955Z,101036.59
2022-08-26T19:36:54.610Z,101044.47
2022-08-26T19:38:58.587Z,101049.00
2022-08-26T19:41:02.046Z,101044.53
2022-08-26T19:43:06.702Z,101041.03
2022-08-26T19:45:25.017Z,101046.41
2022-08-26T19:47:29.071Z,101046.41
2022-08-26T19:49:34.529Z,101042.03
2022-08-26T19:51:38.050Z,101051.00
2022-08-26T19:53:41.701Z,101050.16
2022-08-26T19:55:45.195Z,101044.00
2022-08-26T19:57:48.936Z,101046.69
2022-08-26T19:59:52.430Z,101051.09
2022-08-26T20:02:01.462Z,101052.81
2022-08-26T20:04:05.556Z,101048.34
2022-08-26T20:06:12.722Z,101048.44
2022-08-26T20:08:22.458Z,101040.53
2022-08-26T20:10:26.741Z,101052.03
2022-08-26T20:12:33.271Z,101051.13
2022-08-26T20:14:36.997Z,101045.84
2022-08-26T20:16:40.589Z,101052.94
2022-08-26T20:19:03.332Z,101052.94
2022-08-26T20:21:24.497Z,101059.16
2022-08-26T20:23:29.384Z,101060.97
2022-08-26T20:25:34.281Z,101041.75
2022-08-26T20:27:38.603Z,101066.38
2022-08-26T20:29:42.947Z,101073.56
2022-08-26T20:31:46.873Z,101069.13
2022-08-26T20:33:51.569Z,101067.44
2022-08-26T20:35:55.044Z,101068.38
2022-08-26T20:37:58.883Z,101065.72
2022-08-26T20:40:04.877Z,101067.53
2022-08-26T20:42:20.426Z,101060.44
2022-08-26T20:44:24.216Z,101068.31
2022-08-26T20:46:27.741Z,101070.94
2022-08-26T20:48:32.250Z,101068.38
2022-08-26T20:50:38.979Z,101073.72
2022-08-26T20:52:42.449Z,101071.06
2022-08-26T20:54:45.889Z,101068.50
2022-08-26T20:56:50.960Z,101075.56
2022-08-26T20:58:58.333Z,101075.59
2022-08-26T21:01:07.279Z,101080.06
2022-08-26T21:03:11.256Z,101083.69
2022-08-26T21:05:14.765Z,101077.53
2022-08-26T21:07:20.807Z,101075.78
2022-08-26T21:09:27.267Z,101074.97
2022-08-26T21:11:32.140Z,101068.72
2022-08-26T21:13:54.402Z,101075.84
2022-08-26T21:16:00.836Z,101074.06
2022-08-26T21:18:04.635Z,101077.56
2022-08-26T21:20:09.216Z,101076.81
2022-08-26T21:22:12.637Z,101077.69
2022-08-26T21:24:17.013Z,101075.13
2022-08-26T21:26:20.730Z,101074.22
2022-08-26T21:28:24.169Z,101076.09
2022-08-26T21:30:29.449Z,101079.63
2022-08-26T21:32:33.654Z,101072.56
2022-08-26T21:34:37.165Z,101081.41
2022-08-26T21:36:40.666Z,101081.44
2022-08-26T21:38:44.207Z,101065.66
2022-08-26T21:40:58.021Z,101079.72
2022-08-26T21:43:01.433Z,101089.50
2022-08-26T21:45:06.196Z,101088.63
2022-08-26T21:47:11.107Z,101050.84
2022-08-26T21:49:17.499Z,101086.06
2022-08-26T21:51:22.815Z,101092.25
2022-08-26T21:53:26.340Z,101097.50
2022-08-26T21:55:29.821Z,101102.84
2022-08-26T21:57:34.147Z,101101.91
2022-08-26T21:59:38.577Z,101100.13
2022-08-26T22:01:42.762Z,101092.31
2022-08-26T22:03:48.027Z,101109.16
2022-08-26T22:05:51.527Z,101109.13
2022-08-26T22:07:55.581Z,101109.09
2022-08-26T22:09:59.066Z,101097.59
2022-08-26T22:12:02.692Z,101081.81
2022-08-26T22:16:10.511Z,101102.03
2022-08-26T22:18:14.099Z,101099.38
2022-08-26T22:20:19.001Z,101109.88
2022-08-26T22:22:23.040Z,101108.13
2022-08-26T22:24:27.895Z,101105.50
2022-08-26T22:26:33.286Z,101102.00
2022-08-26T22:28:37.258Z,101108.25
2022-08-26T22:30:43.192Z,101115.44
2022-08-26T22:32:46.628Z,101111.13
2022-08-26T22:34:50.121Z,101114.81
2022-08-26T22:36:54.904Z,101110.34
2022-08-26T22:38:59.862Z,101118.28
2022-08-26T22:41:06.545Z,101120.97
2022-08-26T22:43:12.093Z,101114.91
2022-08-26T22:45:15.517Z,101120.19
2022-08-26T22:47:19.235Z,101123.72
2022-08-26T22:49:23.452Z,101121.00
2022-08-26T22:51:27.898Z,101121.91
2022-08-26T22:53:32.850Z,101116.66
2022-08-26T22:55:39.712Z,101103.53
2022-08-26T22:57:43.255Z,101071.00
2022-08-26T22:59:47.331Z,101119.44
2022-08-26T23:01:51.619Z,101108.88
2022-08-26T23:03:55.106Z,101118.63
2022-08-26T23:05:58.681Z,101080.81
2022-08-26T23:08:03.217Z,101110.72
2022-08-26T23:10:09.839Z,101124.84
2022-08-26T23:12:13.327Z,101109.03
2022-08-26T23:14:17.944Z,101098.47
2022-08-26T23:16:21.471Z,101111.69
2022-08-26T23:18:25.022Z,101112.56
2022-08-26T23:20:29.058Z,101098.50
2022-08-26T23:22:32.498Z,101112.59
2022-08-26T23:24:37.949Z,101113.50
2022-08-26T23:26:43.381Z,101103.84
2022-08-26T23:28:47.028Z,101111.84
2022-08-26T23:30:50.915Z,101117.09
2022-08-26T23:32:54.856Z,101114.44
2022-08-26T23:34:58.699Z,101086.25
2022-08-26T23:37:02.190Z,101118.03
2022-08-26T23:39:10.160Z,101115.38
2022-08-26T23:41:13.557Z,101118.91
2022-08-26T23:43:21.900Z,101110.97
2022-08-26T23:45:25.928Z,101114.44
2022-08-26T23:47:29.698Z,101111.81
2022-08-26T23:49:33.949Z,101118.03
2022-08-26T23:51:56.186Z,101114.53
2022-08-26T23:53:59.612Z,101105.72
2022-08-26T23:56:03.308Z,101112.78
2022-08-26T23:58:07.328Z,101098.69
